Time;durP1;ratioP1;P1;durP2;ratioP2;P2;SDS_P1;SDS_P2;PMS_P1;PMS_P2;Temp;Humidity;BMP_temperature;BMP_pressure;BME280_temperature;BME280_humidity;BME280_pressure;Samples;Min_cycle;Max_cycle;Signal;HPM_P1;HPM_P2
2021/12/13 00:01:55;;;;;;;34.55;16.98;;;9.80;99.90;;;;;;5055251;28;20047;-78
2021/12/13 00:04:22;;;;;;;33.58;16.63;;;9.80;99.90;;;;;;5061421;28;20048;-80
2021/12/13 00:06:48;;;;;;;40.47;14.48;;;9.70;99.90;;;;;;5072344;28;20060;-80
2021/12/13 00:09:15;;;;;;;38.63;16.38;;;9.80;99.90;;;;;;5060434;28;20052;-80
2021/12/13 00:11:41;;;;;;;32.33;17.50;;;9.80;99.90;;;;;;5065122;28;20056;-80
2021/12/13 00:14:08;;;;;;;55.92;19.08;;;9.80;99.90;;;;;;5070000;28;20055;-80
2021/12/13 00:16:34;;;;;;;42.67;16.77;;;9.80;99.90;;;;;;5065769;28;20498;-80
2021/12/13 00:19:01;;;;;;;35.45;17.17;;;9.80;99.90;;;;;;5064892;28;20052;-80
2021/12/13 00:21:27;;;;;;;34.85;16.45;;;9.70;99.90;;;;;;5057266;28;20519;-80
2021/12/13 00:23:55;;;;;;;49.33;18.17;;;9.70;99.90;;;;;;5068272;28;20056;-79
2021/12/13 00:26:21;;;;;;;50.72;16.73;;;9.70;99.90;;;;;;5053815;28;20064;-80
2021/12/13 00:28:48;;;;;;;48.22;17.42;;;9.80;99.90;;;;;;5061954;28;20045;-80
2021/12/13 00:31:14;;;;;;;36.42;17.55;;;9.70;99.90;;;;;;5071118;28;20052;-81
2021/12/13 00:33:41;;;;;;;46.83;17.05;;;9.70;99.90;;;;;;5063290;28;20048;-80
2021/12/13 00:36:07;;;;;;;30.63;15.75;;;9.70;99.90;;;;;;5062464;28;20052;-80
2021/12/13 00:38:34;;;;;;;53.35;19.50;;;9.80;99.90;;;;;;5063479;28;20052;-80
2021/12/13 00:41:00;;;;;;;41.17;16.15;;;9.70;99.90;;;;;;5061189;28;20056;-80
2021/12/13 00:43:27;;;;;;;30.85;14.52;;;9.70;99.90;;;;;;5071402;28;20048;-79
2021/12/13 00:45:54;;;;;;;47.60;17.23;;;9.80;99.90;;;;;;5067390;28;20053;-80
2021/12/13 00:48:20;;;;;;;36.22;13.90;;;9.80;99.90;;;;;;5068562;28;20060;-81
2021/12/13 00:50:47;;;;;;;42.63;16.23;;;9.80;99.90;;;;;;5063970;28;20048;-81
2021/12/13 00:53:13;;;;;;;41.95;15.95;;;9.80;99.90;;;;;;5064711;28;20055;-80
2021/12/13 00:55:40;;;;;;;39.03;17.23;;;9.80;99.90;;;;;;5062766;28;20055;-80
2021/12/13 00:58:06;;;;;;;31.70;15.70;;;9.70;99.90;;;;;;5053617;28;20400;-81
2021/12/13 01:00:33;;;;;;;38.97;15.75;;;9.70;99.90;;;;;;5061405;28;20049;-81
2021/12/13 01:02:59;;;;;;;35.33;17.35;;;9.80;99.90;;;;;;5067478;28;20049;-80
2021/12/13 01:05:26;;;;;;;46.72;19.35;;;9.70;99.90;;;;;;5059067;28;20132;-81
2021/12/13 01:07:53;;;;;;;35.00;17.23;;;9.80;99.90;;;;;;5064337;28;20056;-81
2021/12/13 01:10:19;;;;;;;32.78;16.65;;;9.70;99.90;;;;;;5057208;28;20404;-80
2021/12/13 01:12:46;;;;;;;38.45;18.42;;;9.80;99.90;;;;;;5058729;28;20496;-80
2021/12/13 01:15:14;;;;;;;38.85;18.63;;;9.80;99.90;;;;;;5060294;28;20052;-80
2021/12/13 01:17:50;;;;;;;38.60;17.67;;;9.80;99.90;;;;;;5059615;28;20127;-80
2021/12/13 01:20:18;;;;;;;34.92;17.10;;;9.80;99.90;;;;;;5057954;28;20127;-80
2021/12/13 01:22:49;;;;;;;45.95;18.88;;;9.80;99.90;;;;;;5057245;28;20052;-80
2021/12/13 01:25:25;;;;;;;27.67;17.70;;;9.70;99.90;;;;;;5060750;28;20132;-80
2021/12/13 01:27:52;;;;;;;37.88;19.83;;;9.70;99.90;;;;;;5066532;28;20144;-81
2021/12/13 01:30:18;;;;;;;29.23;17.63;;;9.70;99.90;;;;;;5064121;28;20642;-80
2021/12/13 01:32:45;;;;;;;39.38;19.30;;;9.80;99.90;;;;;;5069151;28;20428;-80
2021/12/13 01:35:11;;;;;;;39.20;19.42;;;9.80;99.90;;;;;;5062146;28;20060;-80
2021/12/13 01:37:38;;;;;;;40.75;18.95;;;9.70;99.90;;;;;;5054107;28;20472;-80
2021/12/13 01:40:05;;;;;;;52.08;21.27;;;9.80;99.90;;;;;;5055092;28;20575;-80
2021/12/13 01:42:31;;;;;;;50.60;21.95;;;9.70;99.90;;;;;;5068950;28;20045;-80
2021/12/13 01:44:58;;;;;;;52.28;23.45;;;9.70;99.90;;;;;;5067723;28;20062;-80
2021/12/13 01:47:24;;;;;;;42.35;21.33;;;9.70;99.90;;;;;;5062885;28;20044;-80
2021/12/13 01:49:52;;;;;;;45.38;21.13;;;9.80;99.90;;;;;;5061314;28;20048;-81
2021/12/13 01:52:18;;;;;;;46.08;20.20;;;9.70;99.90;;;;;;5064767;28;20052;-80
2021/12/13 01:54:45;;;;;;;49.67;23.05;;;9.80;99.90;;;;;;5057270;28;20060;-80
2021/12/13 01:57:23;;;;;;;52.72;23.23;;;9.80;99.90;;;;;;5061491;28;20067;-80
2021/12/13 01:59:52;;;;;;;55.30;23.58;;;9.80;99.90;;;;;;5065851;28;20068;-80
2021/12/13 02:02:19;;;;;;;56.72;24.17;;;9.80;99.90;;;;;;5059632;28;20076;-80
2021/12/13 02:04:45;;;;;;;66.93;25.60;;;9.80;99.90;;;;;;5059534;28;20045;-80
2021/12/13 02:07:12;;;;;;;67.43;25.17;;;9.80;99.90;;;;;;5061209;28;20101;-80
2021/12/13 02:09:38;;;;;;;69.60;26.02;;;9.80;99.90;;;;;;5067919;28;20499;-81
2021/12/13 02:12:05;;;;;;;72.03;26.13;;;9.80;99.90;;;;;;5053187;28;20047;-80
2021/12/13 02:14:33;;;;;;;78.93;27.30;;;9.80;99.90;;;;;;5059157;28;20079;-80
2021/12/13 02:17:01;;;;;;;83.60;27.95;;;9.80;99.90;;;;;;5059574;28;20103;-80
2021/12/13 02:19:31;;;;;;;77.65;26.63;;;9.80;99.90;;;;;;5053452;28;20400;-80
2021/12/13 02:21:58;;;;;;;;;;;9.80;99.90;;;;;;5066053;28;20127;-79
2021/12/13 02:24:24;;;;;;;82.43;25.65;;;9.80;99.90;;;;;;5055756;28;19928;-80
2021/12/13 02:26:51;;;;;;;66.88;26.75;;;9.80;99.90;;;;;;5064028;28;20056;-80
2021/12/13 02:29:17;;;;;;;74.60;26.63;;;9.80;99.90;;;;;;5060193;28;20048;-80
2021/12/13 02:31:44;;;;;;;74.57;26.25;;;9.80;99.90;;;;;;5068721;28;20049;-80
2021/12/13 02:34:11;;;;;;;64.40;26.20;;;9.80;99.90;;;;;;5058213;28;20063;-80
2021/12/13 02:36:37;;;;;;;60.90;24.70;;;9.80;99.90;;;;;;5058371;28;20059;-80
2021/12/13 02:39:04;;;;;;;64.05;23.35;;;9.80;99.90;;;;;;5055966;28;20057;-80
2021/12/13 02:41:30;;;;;;;59.25;22.92;;;9.80;99.90;;;;;;5062042;28;20053;-80
2021/12/13 02:43:57;;;;;;;58.38;21.45;;;9.80;99.90;;;;;;5051778;28;20462;-80
2021/12/13 02:46:23;;;;;;;51.55;21.75;;;9.70;99.90;;;;;;5053221;28;20667;-80
2021/12/13 02:48:50;;;;;;;42.22;17.83;;;9.70;99.90;;;;;;5055846;28;20053;-80
2021/12/13 02:51:17;;;;;;;47.28;20.52;;;9.80;99.90;;;;;;5057542;28;20404;-80
2021/12/13 02:53:43;;;;;;;45.20;18.95;;;9.80;99.90;;;;;;5052504;28;20061;-80
2021/12/13 02:56:10;;;;;;;33.42;16.63;;;9.80;99.90;;;;;;5053564;28;20052;-79
2021/12/13 02:58:36;;;;;;;37.05;18.27;;;9.70;99.90;;;;;;5061432;28;20049;-80
2021/12/13 03:01:03;;;;;;;31.60;16.10;;;9.80;99.90;;;;;;5055434;28;20049;-80
2021/12/13 03:03:29;;;;;;;35.67;15.73;;;9.80;99.90;;;;;;5068401;28;20053;-80
2021/12/13 03:05:56;;;;;;;26.65;16.20;;;9.80;99.90;;;;;;5063571;28;20095;-80
2021/12/13 03:08:23;;;;;;;29.00;15.05;;;9.80;99.90;;;;;;5062141;28;20476;-80
2021/12/13 03:10:50;;;;;;;31.98;16.20;;;9.80;99.90;;;;;;5066907;28;20041;-80
2021/12/13 03:13:16;;;;;;;30.25;15.82;;;9.80;99.90;;;;;;5065242;28;20056;-81
2021/12/13 03:15:43;;;;;;;31.13;15.18;;;9.80;99.90;;;;;;5062942;28;20389;-80
2021/12/13 03:18:09;;;;;;;34.50;17.25;;;9.80;99.90;;;;;;5057623;28;20263;-81
2021/12/13 03:20:36;;;;;;;31.77;17.35;;;9.90;99.90;;;;;;5055033;28;20048;-80
2021/12/13 03:23:02;;;;;;;33.13;20.08;;;9.80;99.90;;;;;;5061408;28;20409;-80
2021/12/13 03:25:29;;;;;;;32.15;17.90;;;9.90;99.90;;;;;;5067311;28;21046;-80
2021/12/13 03:27:55;;;;;;;32.53;18.52;;;9.90;99.90;;;;;;5058576;28;20053;-81
2021/12/13 03:30:22;;;;;;;26.35;17.33;;;9.80;99.90;;;;;;5062980;28;20075;-81
2021/12/13 03:32:48;;;;;;;31.63;16.90;;;9.90;99.90;;;;;;5071803;28;20396;-81
2021/12/13 03:35:15;;;;;;;36.83;19.05;;;9.90;99.90;;;;;;5065000;28;20492;-82
2021/12/13 03:37:42;;;;;;;28.23;18.20;;;9.80;99.90;;;;;;5062144;28;20500;-81
2021/12/13 03:40:08;;;;;;;31.63;19.10;;;9.80;99.90;;;;;;5068403;28;20480;-79
2021/12/13 03:42:35;;;;;;;29.73;18.15;;;9.80;99.90;;;;;;5058574;28;20111;-81
2021/12/13 03:45:01;;;;;;;31.38;18.95;;;9.80;99.90;;;;;;5067683;28;20044;-81
2021/12/13 03:47:28;;;;;;;37.80;18.20;;;9.80;99.90;;;;;;5066903;28;20056;-81
2021/12/13 03:49:54;;;;;;;45.53;20.30;;;9.80;99.90;;;;;;5058612;28;20056;-81
2021/12/13 03:52:21;;;;;;;33.72;18.40;;;9.80;99.90;;;;;;5064003;28;20053;-81
2021/12/13 03:54:47;;;;;;;36.38;19.40;;;9.80;99.90;;;;;;5068747;28;20044;-82
2021/12/13 03:57:14;;;;;;;34.60;20.58;;;9.70;99.90;;;;;;5062002;28;20577;-81
2021/12/13 03:59:40;;;;;;;42.38;20.13;;;9.80;99.90;;;;;;5065035;28;20052;-81
2021/12/13 04:02:07;;;;;;;32.95;20.30;;;9.80;99.90;;;;;;5055526;28;20055;-80
2021/12/13 04:04:33;;;;;;;27.65;17.85;;;9.70;99.90;;;;;;5069286;28;20049;-80
2021/12/13 04:07:00;;;;;;;29.88;17.23;;;9.70;99.90;;;;;;5062899;28;20048;-80
2021/12/13 04:09:26;;;;;;;39.13;17.70;;;9.70;99.90;;;;;;5066607;28;20049;-80
2021/12/13 04:11:53;;;;;;;31.08;18.73;;;9.70;99.90;;;;;;5068757;28;20037;-81
2021/12/13 04:14:24;;;;;;;33.17;18.13;;;9.70;99.90;;;;;;5065529;28;20052;-81
2021/12/13 04:17:03;;;;;;;31.10;18.88;;;9.70;99.90;;;;;;5064201;28;20045;-81
2021/12/13 04:19:29;;;;;;;34.50;17.58;;;9.70;99.90;;;;;;5057984;28;20049;-81
2021/12/13 04:21:56;;;;;;;31.17;16.65;;;9.70;99.90;;;;;;5062643;28;20040;-81
2021/12/13 04:24:22;;;;;;;25.88;15.05;;;9.60;99.90;;;;;;5062399;28;20479;-81
2021/12/13 04:26:49;;;;;;;27.25;15.98;;;9.70;99.90;;;;;;5069140;28;20048;-81
2021/12/13 04:29:15;;;;;;;21.48;15.05;;;9.70;99.90;;;;;;5065246;28;20044;-80
2021/12/13 04:31:42;;;;;;;25.33;12.80;;;9.60;99.90;;;;;;5068881;28;20119;-81
2021/12/13 04:34:08;;;;;;;24.75;13.35;;;9.60;99.90;;;;;;5067416;28;20052;-80
2021/12/13 04:36:35;;;;;;;28.00;13.70;;;9.60;99.90;;;;;;5052929;28;20068;-80
2021/12/13 04:39:01;;;;;;;23.85;13.93;;;9.60;99.90;;;;;;5063748;28;20045;-80
2021/12/13 04:41:28;;;;;;;19.52;13.07;;;9.60;99.90;;;;;;5061946;28;20048;-81
2021/12/13 04:43:55;;;;;;;23.67;12.90;;;9.60;99.90;;;;;;5070332;28;20056;-81
2021/12/13 04:46:21;;;;;;;24.88;12.27;;;9.60;99.90;;;;;;5055704;28;20048;-81
2021/12/13 04:48:48;;;;;;;30.00;13.10;;;9.60;99.90;;;;;;5061258;28;20480;-81
2021/12/13 04:51:14;;;;;;;28.00;13.98;;;9.60;99.90;;;;;;5068849;28;20056;-81
2021/12/13 04:53:41;;;;;;;29.23;13.65;;;9.50;99.90;;;;;;5053656;28;20053;-81
2021/12/13 04:56:07;;;;;;;30.40;12.65;;;9.50;99.90;;;;;;5058207;28;20049;-81
2021/12/13 04:58:34;;;;;;;31.55;12.23;;;9.50;99.90;;;;;;5059031;28;20248;-80
2021/12/13 05:01:00;;;;;;;20.60;13.52;;;9.50;99.90;;;;;;5065576;28;20048;-81
2021/12/13 05:03:27;;;;;;;29.25;13.10;;;9.50;99.90;;;;;;5056101;28;20071;-80
2021/12/13 05:05:53;;;;;;;31.50;12.25;;;9.50;99.90;;;;;;5064807;28;20115;-80
2021/12/13 05:08:20;;;;;;;24.73;12.07;;;9.40;99.90;;;;;;5069735;28;20472;-81
2021/12/13 05:10:48;;;;;;;18.33;9.57;;;9.40;99.90;;;;;;5061752;28;20051;-81
2021/12/13 05:13:14;;;;;;;19.52;10.50;;;9.40;99.90;;;;;;5068106;28;20056;-81
2021/12/13 05:15:41;;;;;;;18.40;9.63;;;9.40;99.90;;;;;;5056513;28;20060;-81
2021/12/13 05:18:07;;;;;;;15.70;8.68;;;9.40;99.90;;;;;;5061421;28;20045;-80
2021/12/13 05:20:34;;;;;;;14.82;8.43;;;9.30;99.90;;;;;;5063154;28;20048;-81
2021/12/13 05:23:00;;;;;;;15.40;9.52;;;9.30;99.90;;;;;;5059799;28;20449;-81
2021/12/13 05:25:27;;;;;;;14.95;9.43;;;9.30;99.90;;;;;;5062921;28;20383;-81
2021/12/13 05:27:53;;;;;;;13.23;9.35;;;9.30;99.90;;;;;;5057720;28;20491;-80
2021/12/13 05:30:20;;;;;;;21.73;9.90;;;9.20;99.90;;;;;;5065018;28;20048;-80
2021/12/13 05:32:47;;;;;;;14.48;8.93;;;9.20;99.90;;;;;;5065936;28;20064;-80
2021/12/13 05:35:13;;;;;;;13.45;8.73;;;9.20;99.90;;;;;;5060194;28;20048;-81
2021/12/13 05:37:40;;;;;;;16.00;7.85;;;9.20;99.90;;;;;;5057693;28;20076;-81
2021/12/13 05:40:06;;;;;;;12.52;7.20;;;9.20;99.90;;;;;;5062640;28;20061;-81
2021/12/13 05:42:33;;;;;;;16.23;8.85;;;9.10;99.90;;;;;;5060743;28;20488;-80
2021/12/13 05:44:59;;;;;;;14.30;8.55;;;9.10;99.90;;;;;;5052454;28;20049;-81
2021/12/13 05:47:27;;;;;;;17.02;8.20;;;9.10;99.90;;;;;;5058278;28;20060;-82
2021/12/13 05:49:53;;;;;;;16.48;9.02;;;9.10;99.90;;;;;;5065384;28;20044;-81
2021/12/13 05:52:20;;;;;;;15.55;8.25;;;9.10;99.90;;;;;;5054717;28;20045;-81
2021/12/13 05:54:47;;;;;;;19.40;9.30;;;9.10;99.90;;;;;;5056241;28;20058;-81
2021/12/13 05:57:13;;;;;;;10.82;8.32;;;9.10;99.90;;;;;;5065775;28;20056;-81
2021/12/13 05:59:40;;;;;;;16.88;9.13;;;9.10;99.90;;;;;;5065823;28;20052;-81
2021/12/13 06:02:06;;;;;;;18.05;9.80;;;9.10;99.90;;;;;;5069034;28;20049;-81
2021/12/13 06:04:33;;;;;;;14.50;8.40;;;9.10;99.90;;;;;;5066088;28;20052;-81
2021/12/13 06:06:59;;;;;;;21.27;8.55;;;9.10;99.90;;;;;;5066316;28;20051;-81
2021/12/13 06:09:26;;;;;;;13.85;8.27;;;9.10;99.90;;;;;;5063667;28;20055;-81
2021/12/13 06:11:52;;;;;;;17.45;8.18;;;9.10;99.90;;;;;;5064910;28;20045;-81
2021/12/13 06:14:19;;;;;;;11.30;7.88;;;9.10;99.90;;;;;;5060971;28;20056;-81
2021/12/13 06:16:45;;;;;;;14.80;9.00;;;9.10;99.90;;;;;;5062447;28;20051;-80
2021/12/13 06:19:12;;;;;;;15.57;8.90;;;9.10;99.90;;;;;;5064241;28;20048;-81
2021/12/13 06:21:38;;;;;;;12.05;9.52;;;9.00;99.90;;;;;;5066889;28;20049;-80
2021/12/13 06:24:05;;;;;;;13.95;8.48;;;9.00;99.90;;;;;;5065255;28;20047;-81
2021/12/13 06:26:31;;;;;;;20.15;10.45;;;9.00;99.90;;;;;;5062388;28;20050;-80
2021/12/13 06:28:58;;;;;;;18.20;10.85;;;9.00;99.90;;;;;;5059722;28;20052;-80
2021/12/13 06:31:25;;;;;;;14.98;9.32;;;9.00;99.90;;;;;;5063450;28;20076;-80
2021/12/13 06:33:51;;;;;;;14.00;9.82;;;9.00;99.90;;;;;;5052419;28;20052;-81
2021/12/13 06:36:18;;;;;;;14.90;8.35;;;9.00;99.90;;;;;;5067381;28;20055;-81
2021/12/13 06:38:44;;;;;;;14.48;9.95;;;9.00;99.90;;;;;;5054715;28;20037;-81
2021/12/13 06:41:11;;;;;;;20.08;10.48;;;9.00;99.90;;;;;;5066552;28;20056;-80
2021/12/13 06:43:37;;;;;;;20.92;9.75;;;9.00;99.90;;;;;;5061887;28;20045;-80
2021/12/13 06:46:04;;;;;;;11.25;8.60;;;9.00;99.90;;;;;;5067254;28;20053;-80
2021/12/13 06:48:30;;;;;;;15.95;9.65;;;9.00;99.90;;;;;;5067024;28;20055;-80
2021/12/13 06:50:57;;;;;;;17.92;9.70;;;9.00;99.90;;;;;;5057996;28;20049;-81
2021/12/13 06:53:23;;;;;;;15.18;10.18;;;9.10;99.90;;;;;;5063312;28;20044;-81
2021/12/13 06:55:50;;;;;;;13.13;9.88;;;9.00;99.90;;;;;;5059365;28;20049;-81
2021/12/13 06:58:16;;;;;;;15.27;9.80;;;9.00;99.90;;;;;;5066528;28;20052;-81
2021/12/13 07:00:43;;;;;;;19.65;10.60;;;8.90;99.90;;;;;;5061238;28;20411;-80
2021/12/13 07:03:10;;;;;;;23.38;10.48;;;8.90;99.90;;;;;;5060243;28;20393;-80
2021/12/13 07:05:36;;;;;;;19.58;11.32;;;8.90;99.90;;;;;;5056104;28;20052;-80
2021/12/13 07:08:03;;;;;;;19.60;10.48;;;8.90;99.90;;;;;;5063239;28;20052;-80
2021/12/13 07:10:29;;;;;;;21.45;10.52;;;8.90;99.90;;;;;;5061120;28;20392;-80
2021/12/13 07:12:56;;;;;;;17.80;10.85;;;8.90;99.90;;;;;;5062960;28;20411;-80
2021/12/13 07:15:22;;;;;;;15.02;10.05;;;8.90;99.90;;;;;;5061053;28;20479;-80
2021/12/13 07:17:49;;;;;;;16.55;10.57;;;8.90;99.90;;;;;;5062339;28;20056;-79
2021/12/13 07:20:15;;;;;;;18.15;9.60;;;8.90;99.90;;;;;;5062699;28;20052;-80
2021/12/13 07:22:42;;;;;;;15.43;10.30;;;8.90;99.90;;;;;;5055103;28;20056;-81
2021/12/13 07:25:08;;;;;;;16.02;10.10;;;8.90;99.90;;;;;;5058410;28;20059;-80
2021/12/13 07:27:35;;;;;;;12.57;9.60;;;8.80;99.90;;;;;;5057956;28;20053;-81
2021/12/13 07:30:02;;;;;;;19.85;10.38;;;8.80;99.90;;;;;;5058935;28;20476;-81
2021/12/13 07:32:28;;;;;;;16.90;9.63;;;8.80;99.90;;;;;;5066650;28;20414;-79
2021/12/13 07:34:55;;;;;;;15.52;8.82;;;8.80;99.90;;;;;;5065109;28;20144;-79
2021/12/13 07:37:21;;;;;;;18.13;11.20;;;8.80;99.90;;;;;;5054572;28;20048;-80
2021/12/13 07:39:48;;;;;;;18.98;10.27;;;8.80;99.90;;;;;;5066666;28;20044;-80
2021/12/13 07:42:14;;;;;;;20.63;10.82;;;8.80;99.90;;;;;;5061763;28;20049;-80
2021/12/13 07:44:41;;;;;;;16.35;10.15;;;8.80;99.90;;;;;;5062681;28;20052;-81
2021/12/13 07:47:08;;;;;;;14.35;9.98;;;8.80;99.90;;;;;;5062675;28;20446;-80
2021/12/13 07:49:34;;;;;;;17.35;11.52;;;8.80;99.90;;;;;;5063707;28;20055;-81
2021/12/13 07:52:02;;;;;;;19.50;12.30;;;8.80;99.90;;;;;;5061940;28;20060;-81
2021/12/13 07:54:29;;;;;;;16.65;10.20;;;8.80;99.90;;;;;;5065494;28;20052;-79
2021/12/13 07:56:55;;;;;;;16.30;11.88;;;8.80;99.90;;;;;;5059409;28;20051;-80
2021/12/13 07:59:22;;;;;;;17.60;11.23;;;8.80;99.90;;;;;;5061975;28;20052;-81
2021/12/13 08:01:48;;;;;;;17.33;11.98;;;8.80;99.90;;;;;;5063942;28;20570;-82
2021/12/13 08:04:15;;;;;;;19.73;12.57;;;8.80;99.90;;;;;;5064294;28;20048;-81
2021/12/13 08:06:42;;;;;;;17.35;11.82;;;8.80;99.90;;;;;;5063719;28;20053;-81
2021/12/13 08:09:08;;;;;;;19.08;12.13;;;8.80;99.90;;;;;;5068849;28;20052;-80
2021/12/13 08:11:35;;;;;;;20.45;13.95;;;8.80;99.90;;;;;;5061666;28;20063;-82
2021/12/13 08:14:01;;;;;;;19.65;13.50;;;8.80;99.90;;;;;;5058386;28;20052;-82
2021/12/13 08:16:28;;;;;;;23.73;16.10;;;8.80;99.90;;;;;;5061012;28;20040;-81
2021/12/13 08:18:54;;;;;;;24.80;14.80;;;8.80;99.90;;;;;;5061169;28;20048;-81
2021/12/13 08:21:21;;;;;;;24.92;15.02;;;8.80;99.90;;;;;;5061604;28;20053;-82
2021/12/13 08:23:48;;;;;;;24.80;16.58;;;8.80;99.90;;;;;;5059461;28;20515;-82
2021/12/13 08:26:14;;;;;;;33.92;16.50;;;8.80;99.90;;;;;;5054700;28;20041;-81
2021/12/13 08:28:41;;;;;;;28.02;16.30;;;8.80;99.90;;;;;;5058718;28;20085;-82
2021/12/13 08:31:07;;;;;;;29.58;17.85;;;8.80;99.90;;;;;;5062990;28;20048;-80
2021/12/13 08:33:34;;;;;;;23.85;17.52;;;8.90;99.90;;;;;;5064152;28;20081;-80
2021/12/13 08:36:01;;;;;;;29.25;17.38;;;8.90;99.90;;;;;;5063313;28;20119;-81
2021/12/13 08:38:27;;;;;;;31.30;17.85;;;8.90;99.90;;;;;;5058111;28;20164;-81
2021/12/13 08:40:54;;;;;;;45.60;19.73;;;8.90;99.90;;;;;;5061757;28;20044;-81
2021/12/13 08:43:20;;;;;;;28.38;19.67;;;8.90;99.90;;;;;;5060428;28;20049;-80
2021/12/13 08:45:48;;;;;;;27.38;19.48;;;9.00;99.90;;;;;;5051140;28;20467;-80
2021/12/13 08:48:15;;;;;;;37.47;20.83;;;9.00;99.90;;;;;;5059935;28;20048;-81
2021/12/13 08:50:42;;;;;;;34.50;20.63;;;9.00;99.90;;;;;;5051477;28;20045;-80
2021/12/13 08:53:09;;;;;;;36.92;21.58;;;8.90;99.90;;;;;;5052971;28;20049;-81
2021/12/13 08:55:35;;;;;;;34.42;20.88;;;8.90;99.90;;;;;;5051849;28;20052;-79
2021/12/13 08:58:02;;;;;;;35.53;22.42;;;9.00;99.90;;;;;;5055993;28;20041;-79
2021/12/13 09:00:30;;;;;;;35.70;21.55;;;8.90;99.90;;;;;;5053712;28;20503;-81
2021/12/13 09:02:57;;;;;;;46.13;23.95;;;9.00;99.90;;;;;;5051599;28;20488;-81
2021/12/13 09:05:23;;;;;;;36.13;24.10;;;9.00;99.90;;;;;;5051674;28;20400;-81
2021/12/13 09:07:50;;;;;;;40.28;23.98;;;9.00;99.90;;;;;;5053474;28;20060;-81
2021/12/13 09:10:16;;;;;;;32.13;23.33;;;9.00;99.90;;;;;;5052243;28;20396;-82
2021/12/13 09:12:45;;;;;;;34.90;21.80;;;9.00;99.90;;;;;;5056059;28;20045;-80
2021/12/13 09:15:14;;;;;;;34.08;23.23;;;9.00;99.90;;;;;;5053805;28;20081;-80
2021/12/13 09:17:41;;;;;;;35.92;21.27;;;9.10;99.90;;;;;;5056991;28;20212;-81
2021/12/13 09:20:08;;;;;;;33.85;23.40;;;9.00;99.90;;;;;;5051244;28;20111;-80
2021/12/13 09:22:34;;;;;;;39.53;22.77;;;9.10;99.90;;;;;;5054097;28;20048;-81
2021/12/13 09:25:01;;;;;;;38.75;23.58;;;9.10;99.90;;;;;;5050800;28;20049;-80
2021/12/13 09:27:28;;;;;;;37.47;22.75;;;9.10;99.90;;;;;;5049057;28;20231;-80
2021/12/13 09:29:54;;;;;;;38.45;23.02;;;9.10;99.90;;;;;;5051994;28;20056;-80
2021/12/13 09:32:23;;;;;;;39.47;22.83;;;9.10;99.90;;;;;;5052357;28;20044;-80
2021/12/13 09:34:50;;;;;;;32.08;23.55;;;9.10;99.90;;;;;;5058367;28;20056;-80
2021/12/13 09:37:16;;;;;;;28.38;19.95;;;9.10;99.90;;;;;;5050133;28;20052;-80
2021/12/13 09:39:43;;;;;;;33.95;23.55;;;9.10;99.90;;;;;;5057115;28;20044;-80
2021/12/13 09:42:09;;;;;;;34.28;22.30;;;9.10;99.90;;;;;;5056465;28;20041;-79
2021/12/13 09:44:38;;;;;;;38.50;24.83;;;9.10;99.90;;;;;;5051769;28;20412;-80
2021/12/13 09:47:04;;;;;;;30.83;22.50;;;9.10;99.90;;;;;;5047955;28;20095;-80
2021/12/13 09:49:31;;;;;;;34.90;21.33;;;9.10;99.90;;;;;;5061431;28;20048;-80
2021/12/13 09:51:57;;;;;;;35.03;22.08;;;9.20;99.90;;;;;;5054683;28;20071;-80
2021/12/13 09:54:24;;;;;;;30.45;20.73;;;9.20;99.90;;;;;;5046748;28;20057;-81
2021/12/13 09:56:50;;;;;;;33.22;22.52;;;9.20;99.90;;;;;;5057213;28;20060;-81
2021/12/13 09:59:17;;;;;;;32.15;21.92;;;9.20;99.90;;;;;;5051126;28;20044;-81
2021/12/13 10:01:43;;;;;;;31.00;22.40;;;9.20;99.90;;;;;;5053879;28;20049;-80
2021/12/13 10:04:10;;;;;;;35.33;21.88;;;9.30;99.90;;;;;;5057211;28;20053;-81
2021/12/13 10:06:36;;;;;;;30.25;21.85;;;9.30;99.90;;;;;;5057318;28;20053;-80
2021/12/13 10:09:03;;;;;;;33.08;21.10;;;9.20;99.90;;;;;;5062037;28;20052;-80
2021/12/13 10:11:29;;;;;;;37.08;20.45;;;9.30;99.90;;;;;;5058092;28;21078;-81
2021/12/13 10:13:56;;;;;;;29.95;21.80;;;9.30;99.90;;;;;;5061403;28;20080;-80
2021/12/13 10:16:23;;;;;;;33.50;22.15;;;9.30;99.90;;;;;;5061872;28;20052;-80
2021/12/13 10:18:49;;;;;;;30.25;20.92;;;9.30;99.90;;;;;;5060993;28;20048;-81
2021/12/13 10:21:16;;;;;;;37.95;21.80;;;9.30;99.90;;;;;;5055070;28;20061;-81
2021/12/13 10:23:42;;;;;;;31.77;21.58;;;9.30;99.90;;;;;;5065862;28;20052;-81
2021/12/13 10:26:09;;;;;;;27.73;19.48;;;9.30;99.90;;;;;;5064094;28;20060;-81
2021/12/13 10:28:35;;;;;;;30.35;22.63;;;9.30;99.90;;;;;;5061842;28;20496;-81
2021/12/13 10:31:02;;;;;;;29.92;19.17;;;9.30;99.90;;;;;;5057346;28;20613;-81
2021/12/13 10:33:28;;;;;;;30.27;21.40;;;9.30;99.90;;;;;;5054031;28;20058;-81
2021/12/13 10:35:55;;;;;;;29.80;19.02;;;9.30;99.90;;;;;;5060558;28;20504;-80
2021/12/13 10:38:22;;;;;;;25.02;17.98;;;9.30;99.90;;;;;;5055730;28;20053;-80
2021/12/13 10:40:48;;;;;;;27.75;18.58;;;9.30;99.90;;;;;;5055049;28;20059;-80
2021/12/13 10:43:15;;;;;;;34.53;20.05;;;9.40;99.90;;;;;;5059126;28;20053;-81
2021/12/13 10:45:42;;;;;;;27.60;18.25;;;9.40;99.90;;;;;;5057232;28;20052;-80
2021/12/13 10:48:08;;;;;;;27.83;20.17;;;9.40;99.90;;;;;;5061551;28;20060;-80
2021/12/13 10:50:35;;;;;;;26.33;18.40;;;9.40;99.90;;;;;;5064574;28;21446;-81
2021/12/13 10:53:01;;;;;;;29.35;17.88;;;9.40;99.90;;;;;;5050211;28;20404;-81
2021/12/13 10:55:28;;;;;;;29.60;17.75;;;9.40;99.90;;;;;;5060039;28;20484;-81
2021/12/13 10:57:54;;;;;;;25.27;17.48;;;9.50;99.90;;;;;;5051000;28;20064;-80
2021/12/13 11:00:21;;;;;;;26.35;18.15;;;9.50;99.90;;;;;;5056936;28;20080;-81
2021/12/13 11:02:47;;;;;;;25.15;17.38;;;9.40;99.90;;;;;;5062309;28;20052;-80
2021/12/13 11:05:14;;;;;;;28.70;18.67;;;9.50;99.90;;;;;;5060441;28;20044;-81
2021/12/13 11:07:40;;;;;;;31.85;18.80;;;9.50;99.90;;;;;;5056655;28;20055;-80
2021/12/13 11:10:07;;;;;;;35.00;19.35;;;9.50;99.90;;;;;;5054284;28;20049;-80
2021/12/13 11:12:33;;;;;;;26.38;16.83;;;9.50;99.90;;;;;;5065164;28;20056;-81
2021/12/13 11:15:00;;;;;;;24.17;17.65;;;9.50;99.90;;;;;;5063607;28;20052;-81
2021/12/13 11:17:27;;;;;;;27.42;18.02;;;9.50;99.90;;;;;;5061651;28;20045;-81
2021/12/13 11:19:53;;;;;;;29.02;18.00;;;9.50;99.90;;;;;;5050948;28;20052;-81
2021/12/13 11:22:20;;;;;;;24.80;17.60;;;9.50;99.90;;;;;;5052322;28;20052;-80
2021/12/13 11:24:46;;;;;;;30.17;18.02;;;9.50;99.90;;;;;;5059779;28;20063;-81
2021/12/13 11:27:13;;;;;;;36.65;18.25;;;9.50;99.90;;;;;;5051669;28;20623;-81
2021/12/13 11:29:41;;;;;;;26.92;18.50;;;9.60;99.90;;;;;;5057570;28;20495;-81
2021/12/13 11:32:07;;;;;;;25.63;17.98;;;9.60;99.90;;;;;;5055874;28;20129;-81
2021/12/13 11:34:34;;;;;;;25.10;17.23;;;9.60;99.90;;;;;;5059343;28;20056;-80
2021/12/13 11:37:01;;;;;;;32.65;19.60;;;9.60;99.90;;;;;;5056998;28;20064;-81
2021/12/13 11:39:27;;;;;;;33.50;18.90;;;9.50;99.90;;;;;;5056323;28;20048;-81
2021/12/13 11:41:55;;;;;;;31.55;16.73;;;9.60;99.90;;;;;;5048696;28;20044;-80
2021/12/13 11:44:22;;;;;;;29.42;17.98;;;9.60;99.90;;;;;;5068471;28;20056;-81
2021/12/13 11:46:48;;;;;;;23.42;16.70;;;9.60;99.90;;;;;;5058253;28;20110;-80
2021/12/13 11:49:15;;;;;;;25.23;16.95;;;9.60;99.90;;;;;;5050212;28;20849;-81
2021/12/13 11:51:42;;;;;;;24.20;16.80;;;9.60;99.90;;;;;;5060528;28;20058;-81
2021/12/13 11:54:08;;;;;;;29.05;16.48;;;9.60;99.90;;;;;;5051457;28;20193;-80
2021/12/13 11:56:35;;;;;;;26.00;16.20;;;9.60;99.90;;;;;;5054185;28;20063;-80
2021/12/13 11:59:02;;;;;;;30.52;17.55;;;9.60;99.90;;;;;;5053979;28;20053;-80
2021/12/13 12:01:28;;;;;;;26.92;17.83;;;9.60;99.90;;;;;;5056333;28;20059;-80
2021/12/13 12:03:55;;;;;;;25.13;17.15;;;9.60;99.90;;;;;;5055248;28;20057;-80
2021/12/13 12:06:21;;;;;;;24.33;15.77;;;9.70;99.90;;;;;;5059555;28;20044;-80
2021/12/13 12:08:48;;;;;;;24.85;17.98;;;9.70;99.90;;;;;;5058340;28;20051;-80
2021/12/13 12:11:14;;;;;;;28.95;17.33;;;9.70;99.90;;;;;;5051377;28;20059;-80
2021/12/13 12:13:41;;;;;;;28.42;15.52;;;9.80;99.90;;;;;;5053064;28;20059;-80
2021/12/13 12:16:07;;;;;;;25.10;15.90;;;9.80;99.90;;;;;;5061050;28;20063;-80
2021/12/13 12:18:34;;;;;;;26.58;18.63;;;9.80;99.90;;;;;;5056931;28;20061;-80
2021/12/13 12:21:00;;;;;;;24.92;15.40;;;9.80;99.90;;;;;;5061804;28;20063;-80
2021/12/13 12:23:27;;;;;;;25.00;16.67;;;9.80;99.90;;;;;;5054933;28;20045;-80
2021/12/13 12:25:53;;;;;;;22.77;14.98;;;9.80;99.90;;;;;;5055005;28;20055;-80
2021/12/13 12:28:20;;;;;;;22.70;14.77;;;9.80;99.90;;;;;;5050227;28;20071;-80
2021/12/13 12:30:47;;;;;;;23.05;15.65;;;9.80;99.90;;;;;;5053472;28;20056;-80
2021/12/13 12:33:13;;;;;;;27.75;16.98;;;9.90;99.90;;;;;;5047387;28;20060;-81
2021/12/13 12:35:40;;;;;;;29.15;16.13;;;9.90;99.90;;;;;;5055201;28;20053;-81